Terminal Aerodrome Forecast
Issued by NWS Detroit/Pontiac, MI

Home | Current Version | Previous Version | Text Only | Print | Product List | Glossary On
Versions: 1 2 3 4 5 6 7 8 9 10 11 12 13 14 15
000
FTUS43 KDTX 171700
TAFFNT
TAF
KFNT 171720Z 1718/1818 17011G21KT P6SM BKN250
     FM180200 20007KT P6SM OVC080
     FM180700 26005KT 6SM -SHRA OVC050
     FM181200 30005KT 5SM -SHRA OVC040
     FM181500 31005KT P6SM SCT050=

USA.gov is the U.S. government's official web portal to all federal, state and local government web resources and services.